Latest Conditions
At L.F.Wade Int. Airport
Recorded at 5:55 pm
Showers
Temp.: 
20°C/68°F
Humidity: 
70%
Wind: 
W 27KT
or 31mph
Island Observations
Observations
Monday, February 08, 2016

Observations are in local time and taken at least once an hour, or upon the start and end of specified events such as showers and thunderstorms.

Time Sky / Weather Wind Speed/Gusts Temp. R.H. Pressure
     knots (mph)  °C (°F)  %  mb / "Hg
 17:55 Mostly Cloudy Showers W 27/0 (31/0) 20(68) 70 1009 / 29.80
 17:12 Mostly Cloudy Showers W 27/0 (31/0) 20(69) 65 1008 / 29.78
 16:55 Mostly Cloudy Showers W 28/0 (32/0) 20(68) 70 1008 / 29.78
 16:39 Mostly Cloudy Showers W 26/0 (30/0) 20(69) 69 1008 / 29.77
 16:33 Mostly Cloudy Showers W 33/0 (38/0) 20(69) 71 1008 / 29.77
 16:12 Mostly Cloudy Showers W 27/0 (31/0) 21(69) 71 1008 / 29.77
 15:58 Mostly Cloudy Showers W 26/0 (30/0) 21(69) 68 1008 / 29.76
 15:55 Mostly Cloudy Showers W 28/0 (32/0) 21(70) 65 1007 / 29.75
 14:55 Few Clouds  W 30/41 (35/47) 21(70) 60 1006 / 29.72
 13:55 Partly Cloudy  W 33/45 (38/52) 21(70) 63 1006 / 29.71
 13:29 Partly Cloudy  W 36/47 (41/54) 21(70) 64 1006 / 29.70
 13:09 Mostly Cloudy  W 33/45 (38/52) 21(70) 68 1006 / 29.70
 12:55 Partly Cloudy  W 35/45 (40/52) 21(70) 67 1006 / 29.70
 12:12 Partly Cloudy Showers W 34/44 (39/51) 21(70) 68 1006 / 29.71
 12:03 Mostly Cloudy Showers W 35/48 (40/55) 21(70) 65 1006 / 29.70
 11:55 Mostly Cloudy Showers W 40/51 (46/59) 21(71) 65 1006 / 29.70
 11:29 Mostly Cloudy Showers W 40/50 (46/58) 21(70) 68 1006 / 29.70
 11:25 Mostly Cloudy Showers W 38/48 (44/55) 21(70) 65 1006 / 29.70
 10:55 Mostly Cloudy  WSW 39/53 (45/61) 22(71) 60 1005 / 29.68
 09:55 Partly Cloudy  WSW 37/49 (43/56) 21(70) 58 1004 / 29.66
 08:55 Mostly Cloudy  WSW 35/45 (40/52) 21(70) 60 1004 / 29.65
 07:55 Few Clouds  WSW 36/46 (41/53) 20(69) 62 1003 / 29.63
 06:55 Partly Cloudy  WSW 31/43 (36/50) 20(69) 62 1003 / 29.62
 06:17 Partly Cloudy  SW 29/40 (33/46) 21(69) 68 1003 / 29.61
Observations from our AWOS sites are available here (password and username are both 'guest').